sensor_id;sensor_type;location;lat;lon;timestamp;pressure;altitude;pressure_sealevel;temperature
70969;BMP280;58630;43.022;25.100;2023-04-23T00:01:44;;;;17.50
70969;BMP280;58630;43.022;25.100;2023-04-23T00:04:11;;;;17.50
70969;BMP280;58630;43.022;25.100;2023-04-23T00:06:37;;;;17.50
70969;BMP280;58630;43.022;25.100;2023-04-23T00:09:03;;;;17.40
70969;BMP280;58630;43.022;25.100;2023-04-23T00:11:31;;;;17.40
70969;BMP280;58630;43.022;25.100;2023-04-23T00:13:56;;;;17.40
70969;BMP280;58630;43.022;25.100;2023-04-23T00:16:22;;;;17.40
70969;BMP280;58630;43.022;25.100;2023-04-23T00:18:48;;;;17.40
70969;BMP280;58630;43.022;25.100;2023-04-23T00:21:14;;;;17.30
70969;BMP280;58630;43.022;25.100;2023-04-23T00:23:39;;;;17.30
70969;BMP280;58630;43.022;25.100;2023-04-23T00:26:05;;;;17.30
70969;BMP280;58630;43.022;25.100;2023-04-23T00:28:31;;;;17.30
70969;BMP280;58630;43.022;25.100;2023-04-23T00:30:56;;;;17.20
70969;BMP280;58630;43.022;25.100;2023-04-23T00:33:22;;;;17.20
70969;BMP280;58630;43.022;25.100;2023-04-23T00:35:47;;;;17.20
70969;BMP280;58630;43.022;25.100;2023-04-23T00:38:13;;;;17.20
70969;BMP280;58630;43.022;25.100;2023-04-23T00:40:38;;;;17.10
70969;BMP280;58630;43.022;25.100;2023-04-23T00:43:04;;;;17.10
70969;BMP280;58630;43.022;25.100;2023-04-23T00:45:31;;;;17.10
70969;BMP280;58630;43.022;25.100;2023-04-23T00:47:57;;;;17.00
70969;BMP280;58630;43.022;25.100;2023-04-23T00:50:22;;;;17.00
70969;BMP280;58630;43.022;25.100;2023-04-23T00:52:48;;;;17.00
70969;BMP280;58630;43.022;25.100;2023-04-23T00:55:14;;;;17.00
70969;BMP280;58630;43.022;25.100;2023-04-23T00:57:40;;;;17.00
70969;BMP280;58630;43.022;25.100;2023-04-23T01:00:07;;;;16.90
70969;BMP280;58630;43.022;25.100;2023-04-23T01:02:33;;;;16.90
70969;BMP280;58630;43.022;25.100;2023-04-23T01:04:59;;;;16.90
70969;BMP280;58630;43.022;25.100;2023-04-23T01:07:25;;;;16.90
70969;BMP280;58630;43.022;25.100;2023-04-23T01:09:52;;;;16.80
70969;BMP280;58630;43.022;25.100;2023-04-23T01:12:18;;;;16.80
70969;BMP280;58630;43.022;25.100;2023-04-23T01:14:43;;;;16.80
70969;BMP280;58630;43.022;25.100;2023-04-23T01:17:10;;;;16.70
70969;BMP280;58630;43.022;25.100;2023-04-23T01:19:36;;;;16.70
70969;BMP280;58630;43.022;25.100;2023-04-23T01:22:07;;;;16.70
70969;BMP280;58630;43.022;25.100;2023-04-23T01:24:32;;;;16.70
70969;BMP280;58630;43.022;25.100;2023-04-23T01:26:58;;;;16.70
70969;BMP280;58630;43.022;25.100;2023-04-23T01:29:24;;;;16.70
70969;BMP280;58630;43.022;25.100;2023-04-23T01:31:49;;;;16.60
70969;BMP280;58630;43.022;25.100;2023-04-23T01:34:16;;;;16.60
70969;BMP280;58630;43.022;25.100;2023-04-23T01:36:41;;;;16.60
70969;BMP280;58630;43.022;25.100;2023-04-23T01:39:07;;;;16.50
70969;BMP280;58630;43.022;25.100;2023-04-23T01:41:33;;;;16.50
70969;BMP280;58630;43.022;25.100;2023-04-23T01:44:00;;;;16.50
70969;BMP280;58630;43.022;25.100;2023-04-23T01:46:26;;;;16.50
70969;BMP280;58630;43.022;25.100;2023-04-23T01:48:51;;;;16.40
70969;BMP280;58630;43.022;25.100;2023-04-23T01:51:17;;;;16.40
70969;BMP280;58630;43.022;25.100;2023-04-23T01:53:42;;;;16.40
70969;BMP280;58630;43.022;25.100;2023-04-23T01:56:08;;;;16.30
70969;BMP280;58630;43.022;25.100;2023-04-23T01:58:34;;;;16.30
70969;BMP280;58630;43.022;25.100;2023-04-23T02:01:00;;;;16.30
70969;BMP280;58630;43.022;25.100;2023-04-23T02:03:27;;;;16.30
70969;BMP280;58630;43.022;25.100;2023-04-23T02:05:52;;;;16.30
70969;BMP280;58630;43.022;25.100;2023-04-23T02:08:19;;;;16.20
70969;BMP280;58630;43.022;25.100;2023-04-23T02:10:44;;;;16.20
70969;BMP280;58630;43.022;25.100;2023-04-23T02:13:10;;;;16.20
70969;BMP280;58630;43.022;25.100;2023-04-23T02:15:36;;;;16.20
70969;BMP280;58630;43.022;25.100;2023-04-23T02:18:02;;;;16.10
70969;BMP280;58630;43.022;25.100;2023-04-23T02:20:28;;;;16.10
70969;BMP280;58630;43.022;25.100;2023-04-23T02:22:53;;;;16.10
70969;BMP280;58630;43.022;25.100;2023-04-23T02:25:20;;;;16.10
70969;BMP280;58630;43.022;25.100;2023-04-23T02:27:46;;;;16.00
70969;BMP280;58630;43.022;25.100;2023-04-23T02:30:12;;;;16.00
70969;BMP280;58630;43.022;25.100;2023-04-23T02:32:38;;;;16.00
70969;BMP280;58630;43.022;25.100;2023-04-23T02:35:04;;;;16.00
70969;BMP280;58630;43.022;25.100;2023-04-23T02:37:33;;;;15.90
70969;BMP280;58630;43.022;25.100;2023-04-23T02:39:59;;;;15.90
70969;BMP280;58630;43.022;25.100;2023-04-23T02:42:25;;;;15.90
70969;BMP280;58630;43.022;25.100;2023-04-23T02:44:51;;;;15.90
70969;BMP280;58630;43.022;25.100;2023-04-23T02:47:16;;;;15.90
70969;BMP280;58630;43.022;25.100;2023-04-23T02:49:42;;;;15.90
70969;BMP280;58630;43.022;25.100;2023-04-23T02:52:07;;;;15.80
70969;BMP280;58630;43.022;25.100;2023-04-23T02:54:33;;;;15.80
70969;BMP280;58630;43.022;25.100;2023-04-23T02:57:01;;;;15.80
70969;BMP280;58630;43.022;25.100;2023-04-23T02:59:27;;;;15.80
70969;BMP280;58630;43.022;25.100;2023-04-23T03:01:53;;;;15.80
70969;BMP280;58630;43.022;25.100;2023-04-23T03:04:18;;;;15.70
70969;BMP280;58630;43.022;25.100;2023-04-23T03:06:44;;;;15.70
70969;BMP280;58630;43.022;25.100;2023-04-23T03:09:10;;;;15.70
70969;BMP280;58630;43.022;25.100;2023-04-23T03:11:36;;;;15.70
70969;BMP280;58630;43.022;25.100;2023-04-23T03:14:02;;;;15.70
70969;BMP280;58630;43.022;25.100;2023-04-23T03:16:28;;;;15.60
70969;BMP280;58630;43.022;25.100;2023-04-23T03:18:54;;;;15.60
70969;BMP280;58630;43.022;25.100;2023-04-23T03:21:20;;;;15.60
70969;BMP280;58630;43.022;25.100;2023-04-23T03:23:45;;;;15.60
70969;BMP280;58630;43.022;25.100;2023-04-23T03:26:11;;;;15.60
70969;BMP280;58630;43.022;25.100;2023-04-23T03:28:36;;;;15.50
70969;BMP280;58630;43.022;25.100;2023-04-23T03:31:02;;;;15.50
70969;BMP280;58630;43.022;25.100;2023-04-23T03:33:27;;;;15.50
70969;BMP280;58630;43.022;25.100;2023-04-23T03:35:53;;;;15.50
70969;BMP280;58630;43.022;25.100;2023-04-23T03:38:18;;;;15.50
70969;BMP280;58630;43.022;25.100;2023-04-23T03:40:44;;;;15.40
70969;BMP280;58630;43.022;25.100;2023-04-23T03:43:09;;;;15.40
70969;BMP280;58630;43.022;25.100;2023-04-23T03:45:35;;;;15.40
70969;BMP280;58630;43.022;25.100;2023-04-23T03:48:00;;;;15.40
70969;BMP280;58630;43.022;25.100;2023-04-23T03:50:26;;;;15.40
70969;BMP280;58630;43.022;25.100;2023-04-23T03:52:51;;;;15.40
70969;BMP280;58630;43.022;25.100;2023-04-23T03:55:17;;;;15.40
70969;BMP280;58630;43.022;25.100;2023-04-23T03:57:44;;;;15.30
70969;BMP280;58630;43.022;25.100;2023-04-23T04:00:10;;;;15.30
70969;BMP280;58630;43.022;25.100;2023-04-23T04:02:36;;;;15.30
70969;BMP280;58630;43.022;25.100;2023-04-23T04:05:02;;;;15.30
70969;BMP280;58630;43.022;25.100;2023-04-23T04:07:27;;;;15.30
70969;BMP280;58630;43.022;25.100;2023-04-23T04:09:53;;;;15.30
70969;BMP280;58630;43.022;25.100;2023-04-23T04:12:19;;;;15.30
70969;BMP280;58630;43.022;25.100;2023-04-23T04:14:45;;;;15.20
70969;BMP280;58630;43.022;25.100;2023-04-23T04:17:10;;;;15.20
70969;BMP280;58630;43.022;25.100;2023-04-23T04:19:37;;;;15.20
70969;BMP280;58630;43.022;25.100;2023-04-23T04:22:02;;;;15.20
70969;BMP280;58630;43.022;25.100;2023-04-23T04:24:28;;;;15.20
70969;BMP280;58630;43.022;25.100;2023-04-23T04:26:59;;;;15.20
70969;BMP280;58630;43.022;25.100;2023-04-23T04:29:25;;;;15.20
70969;BMP280;58630;43.022;25.100;2023-04-23T04:31:52;;;;15.10
70969;BMP280;58630;43.022;25.100;2023-04-23T04:34:18;;;;15.10
70969;BMP280;58630;43.022;25.100;2023-04-23T04:36:44;;;;15.10
70969;BMP280;58630;43.022;25.100;2023-04-23T04:39:10;;;;15.10
70969;BMP280;58630;43.022;25.100;2023-04-23T04:41:37;;;;15.10
70969;BMP280;58630;43.022;25.100;2023-04-23T04:44:03;;;;15.10
70969;BMP280;58630;43.022;25.100;2023-04-23T04:46:28;;;;15.10
70969;BMP280;58630;43.022;25.100;2023-04-23T04:48:56;;;;15.10
70969;BMP280;58630;43.022;25.100;2023-04-23T04:51:21;;;;15.00
70969;BMP280;58630;43.022;25.100;2023-04-23T04:53:47;;;;15.10
70969;BMP280;58630;43.022;25.100;2023-04-23T04:56:12;;;;15.10
70969;BMP280;58630;43.022;25.100;2023-04-23T04:58:38;;;;15.10
70969;BMP280;58630;43.022;25.100;2023-04-23T05:01:03;;;;15.00
70969;BMP280;58630;43.022;25.100;2023-04-23T05:03:29;;;;15.00
70969;BMP280;58630;43.022;25.100;2023-04-23T05:05:56;;;;15.00
70969;BMP280;58630;43.022;25.100;2023-04-23T05:08:23;;;;15.00
70969;BMP280;58630;43.022;25.100;2023-04-23T05:10:49;;;;15.00
70969;BMP280;58630;43.022;25.100;2023-04-23T05:13:18;;;;15.00
70969;BMP280;58630;43.022;25.100;2023-04-23T05:15:44;;;;15.00
70969;BMP280;58630;43.022;25.100;2023-04-23T05:18:10;;;;15.00
70969;BMP280;58630;43.022;25.100;2023-04-23T05:20:35;;;;15.00
70969;BMP280;58630;43.022;25.100;2023-04-23T05:23:01;;;;15.00
70969;BMP280;58630;43.022;25.100;2023-04-23T05:25:30;;;;15.00
70969;BMP280;58630;43.022;25.100;2023-04-23T05:27:56;;;;15.00
70969;BMP280;58630;43.022;25.100;2023-04-23T05:30:21;;;;15.00
70969;BMP280;58630;43.022;25.100;2023-04-23T05:32:47;;;;15.00
70969;BMP280;58630;43.022;25.100;2023-04-23T05:35:13;;;;15.00
70969;BMP280;58630;43.022;25.100;2023-04-23T05:37:38;;;;15.00
70969;BMP280;58630;43.022;25.100;2023-04-23T05:40:04;;;;15.00
70969;BMP280;58630;43.022;25.100;2023-04-23T05:42:33;;;;15.00
70969;BMP280;58630;43.022;25.100;2023-04-23T05:44:58;;;;15.00
70969;BMP280;58630;43.022;25.100;2023-04-23T05:47:24;;;;15.00
70969;BMP280;58630;43.022;25.100;2023-04-23T05:49:49;;;;15.00
70969;BMP280;58630;43.022;25.100;2023-04-23T05:52:15;;;;15.00
70969;BMP280;58630;43.022;25.100;2023-04-23T05:54:41;;;;15.00
70969;BMP280;58630;43.022;25.100;2023-04-23T05:57:06;;;;15.00
70969;BMP280;58630;43.022;25.100;2023-04-23T05:59:32;;;;15.00
70969;BMP280;58630;43.022;25.100;2023-04-23T06:01:58;;;;15.00
70969;BMP280;58630;43.022;25.100;2023-04-23T06:04:24;;;;15.00
70969;BMP280;58630;43.022;25.100;2023-04-23T06:06:49;;;;15.00
70969;BMP280;58630;43.022;25.100;2023-04-23T06:09:15;;;;14.90
70969;BMP280;58630;43.022;25.100;2023-04-23T06:11:40;;;;15.00
70969;BMP280;58630;43.022;25.100;2023-04-23T06:14:06;;;;15.00
70969;BMP280;58630;43.022;25.100;2023-04-23T06:16:31;;;;14.90
70969;BMP280;58630;43.022;25.100;2023-04-23T06:18:57;;;;15.00
70969;BMP280;58630;43.022;25.100;2023-04-23T06:21:22;;;;14.90
70969;BMP280;58630;43.022;25.100;2023-04-23T06:23:48;;;;14.90
70969;BMP280;58630;43.022;25.100;2023-04-23T06:26:14;;;;14.90
70969;BMP280;58630;43.022;25.100;2023-04-23T06:28:43;;;;14.90
70969;BMP280;58630;43.022;25.100;2023-04-23T06:31:09;;;;15.00
70969;BMP280;58630;43.022;25.100;2023-04-23T06:33:35;;;;15.00
70969;BMP280;58630;43.022;25.100;2023-04-23T06:36:01;;;;15.00
70969;BMP280;58630;43.022;25.100;2023-04-23T06:38:27;;;;15.00
70969;BMP280;58630;43.022;25.100;2023-04-23T06:40:53;;;;15.00
70969;BMP280;58630;43.022;25.100;2023-04-23T06:43:18;;;;15.00
70969;BMP280;58630;43.022;25.100;2023-04-23T06:45:44;;;;15.00
70969;BMP280;58630;43.022;25.100;2023-04-23T06:48:09;;;;15.00
70969;BMP280;58630;43.022;25.100;2023-04-23T06:50:35;;;;15.00
70969;BMP280;58630;43.022;25.100;2023-04-23T06:53:01;;;;15.00
70969;BMP280;58630;43.022;25.100;2023-04-23T06:55:26;;;;15.00
70969;BMP280;58630;43.022;25.100;2023-04-23T06:57:53;;;;15.00
70969;BMP280;58630;43.022;25.100;2023-04-23T07:00:19;;;;15.00
70969;BMP280;58630;43.022;25.100;2023-04-23T07:02:44;;;;15.00
70969;BMP280;58630;43.022;25.100;2023-04-23T07:05:11;;;;15.00
70969;BMP280;58630;43.022;25.100;2023-04-23T07:07:37;;;;15.00
70969;BMP280;58630;43.022;25.100;2023-04-23T07:10:05;;;;15.00
70969;BMP280;58630;43.022;25.100;2023-04-23T07:12:31;;;;15.00
70969;BMP280;58630;43.022;25.100;2023-04-23T07:14:57;;;;15.00
70969;BMP280;58630;43.022;25.100;2023-04-23T07:17:22;;;;15.10
70969;BMP280;58630;43.022;25.100;2023-04-23T07:19:48;;;;15.00
70969;BMP280;58630;43.022;25.100;2023-04-23T07:22:13;;;;15.10
70969;BMP280;58630;43.022;25.100;2023-04-23T07:24:39;;;;15.00
70969;BMP280;58630;43.022;25.100;2023-04-23T07:27:05;;;;15.00
70969;BMP280;58630;43.022;25.100;2023-04-23T07:29:31;;;;15.00
70969;BMP280;58630;43.022;25.100;2023-04-23T07:31:57;;;;15.10
70969;BMP280;58630;43.022;25.100;2023-04-23T07:34:22;;;;15.10
70969;BMP280;58630;43.022;25.100;2023-04-23T07:36:48;;;;15.00
70969;BMP280;58630;43.022;25.100;2023-04-23T07:39:13;;;;15.00
70969;BMP280;58630;43.022;25.100;2023-04-23T07:41:39;;;;15.00
70969;BMP280;58630;43.022;25.100;2023-04-23T07:44:05;;;;15.00
70969;BMP280;58630;43.022;25.100;2023-04-23T07:46:30;;;;15.10
70969;BMP280;58630;43.022;25.100;2023-04-23T07:48:56;;;;15.10
70969;BMP280;58630;43.022;25.100;2023-04-23T07:51:21;;;;15.10
70969;BMP280;58630;43.022;25.100;2023-04-23T07:53:51;;;;15.10
70969;BMP280;58630;43.022;25.100;2023-04-23T07:56:19;;;;15.00
70969;BMP280;58630;43.022;25.100;2023-04-23T07:58:45;;;;15.10
70969;BMP280;58630;43.022;25.100;2023-04-23T08:01:11;;;;15.10
70969;BMP280;58630;43.022;25.100;2023-04-23T08:03:36;;;;15.10
70969;BMP280;58630;43.022;25.100;2023-04-23T08:06:02;;;;15.10
70969;BMP280;58630;43.022;25.100;2023-04-23T08:08:29;;;;15.10
70969;BMP280;58630;43.022;25.100;2023-04-23T08:10:54;;;;15.10
70969;BMP280;58630;43.022;25.100;2023-04-23T08:13:20;;;;15.20
70969;BMP280;58630;43.022;25.100;2023-04-23T08:15:45;;;;15.20
70969;BMP280;58630;43.022;25.100;2023-04-23T08:18:11;;;;15.20
70969;BMP280;58630;43.022;25.100;2023-04-23T08:20:36;;;;15.20
70969;BMP280;58630;43.022;25.100;2023-04-23T08:23:02;;;;15.20
70969;BMP280;58630;43.022;25.100;2023-04-23T08:25:28;;;;15.20
70969;BMP280;58630;43.022;25.100;2023-04-23T08:27:54;;;;15.20
70969;BMP280;58630;43.022;25.100;2023-04-23T08:30:20;;;;15.30
70969;BMP280;58630;43.022;25.100;2023-04-23T08:32:47;;;;15.30
70969;BMP280;58630;43.022;25.100;2023-04-23T08:35:13;;;;15.30
70969;BMP280;58630;43.022;25.100;2023-04-23T08:37:39;;;;15.30
70969;BMP280;58630;43.022;25.100;2023-04-23T08:40:05;;;;15.30
70969;BMP280;58630;43.022;25.100;2023-04-23T08:45:01;;;;15.30
70969;BMP280;58630;43.022;25.100;2023-04-23T08:47:26;;;;15.30
70969;BMP280;58630;43.022;25.100;2023-04-23T08:49:54;;;;15.30
70969;BMP280;58630;43.022;25.100;2023-04-23T08:52:23;;;;15.30
70969;BMP280;58630;43.022;25.100;2023-04-23T08:54:52;;;;15.40
70969;BMP280;58630;43.022;25.100;2023-04-23T08:57:17;;;;15.40
70969;BMP280;58630;43.022;25.100;2023-04-23T08:59:43;;;;15.40
70969;BMP280;58630;43.022;25.100;2023-04-23T09:02:10;;;;15.40
70969;BMP280;58630;43.022;25.100;2023-04-23T09:04:36;;;;15.40
70969;BMP280;58630;43.022;25.100;2023-04-23T09:07:02;;;;15.40
70969;BMP280;58630;43.022;25.100;2023-04-23T09:09:29;;;;15.40
70969;BMP280;58630;43.022;25.100;2023-04-23T09:11:55;;;;15.40
70969;BMP280;58630;43.022;25.100;2023-04-23T09:14:24;;;;15.50
70969;BMP280;58630;43.022;25.100;2023-04-23T09:16:50;;;;15.50
70969;BMP280;58630;43.022;25.100;2023-04-23T09:19:16;;;;15.50
70969;BMP280;58630;43.022;25.100;2023-04-23T09:21:42;;;;15.50
70969;BMP280;58630;43.022;25.100;2023-04-23T09:24:08;;;;15.50
70969;BMP280;58630;43.022;25.100;2023-04-23T09:26:44;;;;15.50
70969;BMP280;58630;43.022;25.100;2023-04-23T09:29:17;;;;15.50
70969;BMP280;58630;43.022;25.100;2023-04-23T09:31:47;;;;15.60
70969;BMP280;58630;43.022;25.100;2023-04-23T09:34:16;;;;15.60
70969;BMP280;58630;43.022;25.100;2023-04-23T09:36:43;;;;15.60
70969;BMP280;58630;43.022;25.100;2023-04-23T09:39:16;;;;15.60
70969;BMP280;58630;43.022;25.100;2023-04-23T09:41:42;;;;15.60
70969;BMP280;58630;43.022;25.100;2023-04-23T09:44:08;;;;15.60
70969;BMP280;58630;43.022;25.100;2023-04-23T09:46:34;;;;15.60
70969;BMP280;58630;43.022;25.100;2023-04-23T09:49:01;;;;15.60
70969;BMP280;58630;43.022;25.100;2023-04-23T09:51:28;;;;15.60
70969;BMP280;58630;43.022;25.100;2023-04-23T09:53:53;;;;15.70
70969;BMP280;58630;43.022;25.100;2023-04-23T09:56:19;;;;15.70
70969;BMP280;58630;43.022;25.100;2023-04-23T09:58:45;;;;15.70
70969;BMP280;58630;43.022;25.100;2023-04-23T10:01:11;;;;15.70
70969;BMP280;58630;43.022;25.100;2023-04-23T10:03:42;;;;15.70
70969;BMP280;58630;43.022;25.100;2023-04-23T10:06:14;;;;15.80
70969;BMP280;58630;43.022;25.100;2023-04-23T10:08:39;;;;15.80
70969;BMP280;58630;43.022;25.100;2023-04-23T10:11:05;;;;15.80
70969;BMP280;58630;43.022;25.100;2023-04-23T10:13:33;;;;15.80
70969;BMP280;58630;43.022;25.100;2023-04-23T10:15:59;;;;15.80
70969;BMP280;58630;43.022;25.100;2023-04-23T10:18:26;;;;15.80
70969;BMP280;58630;43.022;25.100;2023-04-23T10:20:51;;;;15.80
70969;BMP280;58630;43.022;25.100;2023-04-23T10:23:18;;;;15.90
70969;BMP280;58630;43.022;25.100;2023-04-23T10:25:44;;;;15.90
70969;BMP280;58630;43.022;25.100;2023-04-23T10:28:11;;;;15.90
70969;BMP280;58630;43.022;25.100;2023-04-23T10:30:39;;;;15.90
70969;BMP280;58630;43.022;25.100;2023-04-23T10:33:06;;;;15.90
70969;BMP280;58630;43.022;25.100;2023-04-23T10:35:32;;;;16.00
70969;BMP280;58630;43.022;25.100;2023-04-23T10:37:58;;;;16.00
70969;BMP280;58630;43.022;25.100;2023-04-23T10:40:25;;;;16.00
70969;BMP280;58630;43.022;25.100;2023-04-23T10:42:54;;;;16.00
70969;BMP280;58630;43.022;25.100;2023-04-23T10:45:20;;;;16.10
70969;BMP280;58630;43.022;25.100;2023-04-23T10:47:45;;;;16.10
70969;BMP280;58630;43.022;25.100;2023-04-23T10:52:43;;;;16.10
70969;BMP280;58630;43.022;25.100;2023-04-23T10:55:15;;;;16.20
70969;BMP280;58630;43.022;25.100;2023-04-23T11:00:22;;;;16.20
70969;BMP280;58630;43.022;25.100;2023-04-23T11:02:48;;;;16.30
70969;BMP280;58630;43.022;25.100;2023-04-23T11:05:14;;;;16.30
70969;BMP280;58630;43.022;25.100;2023-04-23T11:07:41;;;;16.40
70969;BMP280;58630;43.022;25.100;2023-04-23T11:10:11;;;;16.40
70969;BMP280;58630;43.022;25.100;2023-04-23T11:12:37;;;;16.50
70969;BMP280;58630;43.022;25.100;2023-04-23T11:15:10;;;;16.50
70969;BMP280;58630;43.022;25.100;2023-04-23T11:22:47;;;;16.70
70969;BMP280;58630;43.022;25.100;2023-04-23T11:27:40;;;;16.80
70969;BMP280;58630;43.022;25.100;2023-04-23T11:30:14;;;;16.90
70969;BMP280;58630;43.022;25.100;2023-04-23T11:32:40;;;;16.90
70969;BMP280;58630;43.022;25.100;2023-04-23T11:35:06;;;;17.00
70969;BMP280;58630;43.022;25.100;2023-04-23T11:37:37;;;;17.10
70969;BMP280;58630;43.022;25.100;2023-04-23T11:40:10;;;;17.30
70969;BMP280;58630;43.022;25.100;2023-04-23T11:42:41;;;;17.40
70969;BMP280;58630;43.022;25.100;2023-04-23T11:45:16;;;;17.60
70969;BMP280;58630;43.022;25.100;2023-04-23T11:47:42;;;;17.70
70969;BMP280;58630;43.022;25.100;2023-04-23T11:50:08;;;;17.70
70969;BMP280;58630;43.022;25.100;2023-04-23T11:52:34;;;;17.90
70969;BMP280;58630;43.022;25.100;2023-04-23T11:55:04;;;;18.10
70969;BMP280;58630;43.022;25.100;2023-04-23T11:57:33;;;;18.30
70969;BMP280;58630;43.022;25.100;2023-04-23T11:59:58;;;;18.60
70969;BMP280;58630;43.022;25.100;2023-04-23T12:02:24;;;;18.90
70969;BMP280;58630;43.022;25.100;2023-04-23T12:04:50;;;;19.20
70969;BMP280;58630;43.022;25.100;2023-04-23T12:07:15;;;;19.40
70969;BMP280;58630;43.022;25.100;2023-04-23T12:09:41;;;;19.50
70969;BMP280;58630;43.022;25.100;2023-04-23T12:12:09;;;;19.70
70969;BMP280;58630;43.022;25.100;2023-04-23T12:14:35;;;;20.10
70969;BMP280;58630;43.022;25.100;2023-04-23T12:17:07;;;;20.50
70969;BMP280;58630;43.022;25.100;2023-04-23T12:19:33;;;;20.80
70969;BMP280;58630;43.022;25.100;2023-04-23T12:21:59;;;;21.20
70969;BMP280;58630;43.022;25.100;2023-04-23T12:24:27;;;;21.50
70969;BMP280;58630;43.022;25.100;2023-04-23T12:26:53;;;;21.80
70969;BMP280;58630;43.022;25.100;2023-04-23T12:29:20;;;;22.00
70969;BMP280;58630;43.022;25.100;2023-04-23T12:31:46;;;;22.00
70969;BMP280;58630;43.022;25.100;2023-04-23T12:34:12;;;;21.90
70969;BMP280;58630;43.022;25.100;2023-04-23T12:36:38;;;;21.60
70969;BMP280;58630;43.022;25.100;2023-04-23T12:39:18;;;;21.30
70969;BMP280;58630;43.022;25.100;2023-04-23T12:41:43;;;;21.10
70969;BMP280;58630;43.022;25.100;2023-04-23T12:44:09;;;;20.90
70969;BMP280;58630;43.022;25.100;2023-04-23T12:46:34;;;;20.70
70969;BMP280;58630;43.022;25.100;2023-04-23T12:49:00;;;;20.60
70969;BMP280;58630;43.022;25.100;2023-04-23T12:51:25;;;;20.50
70969;BMP280;58630;43.022;25.100;2023-04-23T12:53:51;;;;20.50
70969;BMP280;58630;43.022;25.100;2023-04-23T12:56:16;;;;20.40
70969;BMP280;58630;43.022;25.100;2023-04-23T12:58:42;;;;20.40
70969;BMP280;58630;43.022;25.100;2023-04-23T13:01:08;;;;20.60
70969;BMP280;58630;43.022;25.100;2023-04-23T13:03:35;;;;21.00
70969;BMP280;58630;43.022;25.100;2023-04-23T13:06:01;;;;21.50
70969;BMP280;58630;43.022;25.100;2023-04-23T13:08:26;;;;22.00
70969;BMP280;58630;43.022;25.100;2023-04-23T13:10:52;;;;22.50
70969;BMP280;58630;43.022;25.100;2023-04-23T13:13:17;;;;23.00
70969;BMP280;58630;43.022;25.100;2023-04-23T13:15:43;;;;23.20
70969;BMP280;58630;43.022;25.100;2023-04-23T13:18:08;;;;23.50
70969;BMP280;58630;43.022;25.100;2023-04-23T13:20:34;;;;23.70
70969;BMP280;58630;43.022;25.100;2023-04-23T13:23:01;;;;24.00
70969;BMP280;58630;43.022;25.100;2023-04-23T13:25:27;;;;23.90
70969;BMP280;58630;43.022;25.100;2023-04-23T13:27:53;;;;23.70
70969;BMP280;58630;43.022;25.100;2023-04-23T13:30:18;;;;23.50
70969;BMP280;58630;43.022;25.100;2023-04-23T13:32:44;;;;23.30
70969;BMP280;58630;43.022;25.100;2023-04-23T13:35:09;;;;23.40
70969;BMP280;58630;43.022;25.100;2023-04-23T13:37:35;;;;23.60
70969;BMP280;58630;43.022;25.100;2023-04-23T13:40:00;;;;23.70
70969;BMP280;58630;43.022;25.100;2023-04-23T13:42:26;;;;23.60
70969;BMP280;58630;43.022;25.100;2023-04-23T13:44:52;;;;23.60
70969;BMP280;58630;43.022;25.100;2023-04-23T13:47:18;;;;23.50
70969;BMP280;58630;43.022;25.100;2023-04-23T13:49:43;;;;23.40
70969;BMP280;58630;43.022;25.100;2023-04-23T13:52:09;;;;23.30
70969;BMP280;58630;43.022;25.100;2023-04-23T13:54:34;;;;23.40
70969;BMP280;58630;43.022;25.100;2023-04-23T13:57:00;;;;23.70
70969;BMP280;58630;43.022;25.100;2023-04-23T13:59:25;;;;24.00
70969;BMP280;58630;43.022;25.100;2023-04-23T14:01:51;;;;24.10
70969;BMP280;58630;43.022;25.100;2023-04-23T14:04:17;;;;24.20
70969;BMP280;58630;43.022;25.100;2023-04-23T14:06:42;;;;24.10
70969;BMP280;58630;43.022;25.100;2023-04-23T14:09:09;;;;24.10
70969;BMP280;58630;43.022;25.100;2023-04-23T14:11:35;;;;24.00
70969;BMP280;58630;43.022;25.100;2023-04-23T14:14:00;;;;23.90
70969;BMP280;58630;43.022;25.100;2023-04-23T14:16:26;;;;24.10
70969;BMP280;58630;43.022;25.100;2023-04-23T14:18:52;;;;24.40
70969;BMP280;58630;43.022;25.100;2023-04-23T14:21:17;;;;24.70
70969;BMP280;58630;43.022;25.100;2023-04-23T14:26:08;;;;24.50
70969;BMP280;58630;43.022;25.100;2023-04-23T14:28:43;;;;24.40
70969;BMP280;58630;43.022;25.100;2023-04-23T14:31:09;;;;24.30
70969;BMP280;58630;43.022;25.100;2023-04-23T14:33:35;;;;24.10
70969;BMP280;58630;43.022;25.100;2023-04-23T14:36:00;;;;24.10
70969;BMP280;58630;43.022;25.100;2023-04-23T14:38:26;;;;24.10
70969;BMP280;58630;43.022;25.100;2023-04-23T14:40:51;;;;24.40
70969;BMP280;58630;43.022;25.100;2023-04-23T14:43:17;;;;24.60
70969;BMP280;58630;43.022;25.100;2023-04-23T14:45:43;;;;24.90
70969;BMP280;58630;43.022;25.100;2023-04-23T14:48:08;;;;25.10
70969;BMP280;58630;43.022;25.100;2023-04-23T14:50:34;;;;25.30
70969;BMP280;58630;43.022;25.100;2023-04-23T14:52:59;;;;25.50
70969;BMP280;58630;43.022;25.100;2023-04-23T14:55:27;;;;25.70
70969;BMP280;58630;43.022;25.100;2023-04-23T14:57:53;;;;25.90
70969;BMP280;58630;43.022;25.100;2023-04-23T15:00:18;;;;26.10
70969;BMP280;58630;43.022;25.100;2023-04-23T15:02:46;;;;26.30
70969;BMP280;58630;43.022;25.100;2023-04-23T15:05:12;;;;26.40
70969;BMP280;58630;43.022;25.100;2023-04-23T15:07:40;;;;26.50
70969;BMP280;58630;43.022;25.100;2023-04-23T15:10:06;;;;26.70
70969;BMP280;58630;43.022;25.100;2023-04-23T15:12:40;;;;26.80
70969;BMP280;58630;43.022;25.100;2023-04-23T15:17:50;;;;27.00
70969;BMP280;58630;43.022;25.100;2023-04-23T15:20:16;;;;27.10
70969;BMP280;58630;43.022;25.100;2023-04-23T15:22:42;;;;27.30
70969;BMP280;58630;43.022;25.100;2023-04-23T15:25:08;;;;27.40
70969;BMP280;58630;43.022;25.100;2023-04-23T15:27:33;;;;27.40
70969;BMP280;58630;43.022;25.100;2023-04-23T15:29:59;;;;27.50
70969;BMP280;58630;43.022;25.100;2023-04-23T15:32:24;;;;27.60
70969;BMP280;58630;43.022;25.100;2023-04-23T15:34:50;;;;27.60
70969;BMP280;58630;43.022;25.100;2023-04-23T15:37:15;;;;27.70
70969;BMP280;58630;43.022;25.100;2023-04-23T15:39:43;;;;27.80
70969;BMP280;58630;43.022;25.100;2023-04-23T15:42:08;;;;27.80
70969;BMP280;58630;43.022;25.100;2023-04-23T15:44:35;;;;27.80
70969;BMP280;58630;43.022;25.100;2023-04-23T15:47:01;;;;27.90
70969;BMP280;58630;43.022;25.100;2023-04-23T15:49:27;;;;27.90
70969;BMP280;58630;43.022;25.100;2023-04-23T15:51:53;;;;28.00
70969;BMP280;58630;43.022;25.100;2023-04-23T15:54:18;;;;28.00
70969;BMP280;58630;43.022;25.100;2023-04-23T15:56:44;;;;28.00
70969;BMP280;58630;43.022;25.100;2023-04-23T15:59:10;;;;28.00